• Join FlightAware (Why Join?)
  • Login
  • US Flag 
05:43PM EDT


 

Airport Tracker/Info


-or-


 

Live Flight TrackerFlight Track Log ✈ UAL532 ✈ 11-Jun-2013 ✈ KDEN - KORD

Flight Track Log - Related Links

Times and Time Zones

All times are in EDT time to prevent confusion due to time zone crossing. See the UAL532 flight status page for this flight to view local times or setup timezone preferences in your user account.

Time Position Orientation Groundspeed Altitude Reporting Facility
EDT Latitude Longitude Course Direction KTS MPH feet Rate Location/Type
07:57AM 39.8833 -104.5333 66° East 216 249 7,000  Level Denver TRACON
07:58AM 39.8789 -104.4597 94° East 259 298 8,200 1,800 Climbing Denver Center
07:59AM 39.9327 -104.2207 78° East  Level FlightAware Approximate
07:59AM 39.9008 -104.3556 75° East 300 345 10,400  Level Denver Center
08:00AM 39.9577 -104.0708 78° East  Level FlightAware Approximate
08:00AM 39.9269 -104.2300 75° East 365 420 12,000  Level Denver Center
08:01AM 39.9850 -103.9216 79° East  Level FlightAware Approximate
08:01AM 39.9547 -104.0908 75° East 395 455 15,500  Level Denver Center
08:02AM 40.0143 -103.7738 66° East  Level FlightAware Approximate
08:02AM 39.9808 -103.9636 75° East 362 417 20,000  Level Denver Center
08:03AM 40.0064 -103.8392 75° East 356 410 21,900 1,320 Climbing Denver Center
08:04AM 40.0331 -103.7014 76° East 406 467 22,700 1,380 Climbing Denver Center
08:05AM 40.0586 -103.5400 78° East 453 521 24,700 1,800 Climbing Denver Center
08:06AM 40.0853 -103.3739 78° East 466 536 26,400 1,380 Climbing Denver Center
08:07AM 40.1136 -103.2025 78° East 483 556 27,600 1,080 Climbing Denver Center
08:08AM 40.1403 -103.0286 79° East 490 564 28,600 960 Climbing Denver Center
08:09AM 40.1678 -102.8531 78° East 494 568 29,600 1,020 Climbing Denver Center
08:10AM 40.1975 -102.6619 78° East 495 570 30,700 1,020 Climbing Denver Center
08:11AM 40.2244 -102.4917 78° East 498 573 31,700 1,200 Climbing Denver Center
08:12AM 40.2539 -102.2942 79° East 496 571 33,200 1,320 Climbing Denver Center
08:13AM 40.2792 -102.1278 79° East 489 563 34,400 840 Climbing Denver Center
08:14AM 40.3036 -101.9619 79° East 487 560 34,900 240 Climbing Denver Center
08:15AM 40.3297 -101.7967 78° East 485 558 35,000  Climbing Denver Center
08:16AM 40.3569 -101.6042 79° East 482 555 35,000  Level Denver Center
08:17AM 40.3803 -101.4392 79° East 482 555 35,000  Level Denver Center
08:18AM 40.4081 -101.2472 79° East 482 555 35,000  Level Denver Center
08:19AM 40.4344 -101.0556 80° East 482 555 35,000  Level Denver Center
08:20AM 40.4756 -100.8700 74° East 482 555 35,000  Level Denver Center
08:21AM 40.5292 -100.7208 65° Northeast 479 551 35,000  Level Denver Center
08:22AM 40.5839 -100.5719 64° Northeast 478 550 35,000  Level Denver Center
08:23AM 40.6483 -100.3961 64° Northeast 481 554 35,000  Level Denver Center
08:24AM 40.7044 -100.2464 64° Northeast 479 551 35,000  Level Denver Center
08:25AM 40.7597 -100.0956 64° Northeast 480 552 35,000  Level Denver Center
08:26AM 40.8233 -99.9178 65° Northeast 481 554 35,000  Level Denver Center
08:27AM 40.8808 -99.7606 64° Northeast 477 549 35,000  Level Denver Center
08:28AM 40.9381 -99.6019 64° Northeast 478 550 35,000  Level Denver Center
08:29AM 40.9956 -99.4442 64° Northeast 479 551 35,000  Level Minneapolis Center
08:30AM 41.0522 -99.2844 65° Northeast 477 549 35,000  Level Denver Center
08:31AM 41.1086 -99.1236 65° Northeast 479 551 35,000  Level Denver Center
08:32AM 41.1625 -98.9556 67° East 469 540 35,000  Level Denver Center
08:33AM 41.1844 -98.7856 80° East 483 556 35,000 60 Level Denver Center
08:34AM 41.2064 -98.5806 82° East 487 560 35,200 420 Climbing Minneapolis Center
08:35AM 41.2278 -98.4200 80° East 480 552 35,900 720 Climbing Minneapolis Center
08:36AM 41.2617 -98.2475 75° East 482 555 36,700 480 Climbing Minneapolis Center
08:37AM 41.2933 -98.0761 76° East 480 552 37,000 120 Climbing Minneapolis Center
08:39AM 41.3275 -97.8939 76° East 476 548 37,000  Level Minneapolis Center
08:40AM 41.3583 -97.7236 76° East 474 545 37,000  Level Minneapolis Center
08:41AM 41.3889 -97.5525 77° East 475 547 37,000  Level Minneapolis Center
08:42AM 41.4269 -97.3453 76° East 479 551 37,000  Level Minneapolis Center
08:43AM 41.4578 -97.1714 77° East 481 554 37,000  Level Minneapolis Center
08:44AM 41.4886 -96.9958 77° East 486 559 37,000  Level Minneapolis Center
08:45AM 41.5200 -96.8181 77° East 490 564 37,100  Climbing Minneapolis Center
08:46AM 41.5500 -96.6394 77° East 491 565 37,000 -60 Descending Minneapolis Center
08:47AM 41.5811 -96.4600 77° East 494 568 37,000  Level Minneapolis Center
08:48AM 41.6125 -96.2597 78° East 496 571 37,000  Level Minneapolis Center
08:49AM 41.6431 -96.0803 77° East 497 572 37,000  Level Minneapolis Center
08:50AM 41.6731 -95.9144 76° East 496 571 37,000  Level Minneapolis Center
08:51AM 41.7072 -95.6964 78° East 496 571 37,000  Level Minneapolis Center
08:52AM 41.7367 -95.5128 78° East 502 578 37,000 360 Level Minneapolis Center
08:53AM 41.7669 -95.3283 78° East 505 581 37,800 900 Climbing Minneapolis Center
08:54AM 41.7947 -95.1483 78° East 497 572 38,900 540 Climbing Minneapolis Center
08:55AM 41.8211 -94.9761 78° East 478 550 39,000  Climbing Minneapolis Center
08:56AM 41.8481 -94.7983 78° East 483 556 39,000  Level Minneapolis Center
08:57AM 41.8764 -94.6172 78° East 494 568 39,000  Level Minneapolis Center
08:58AM 41.9094 -94.3967 79° East 502 578 39,000  Level Minneapolis Center
08:59AM 41.9372 -94.2119 79° East 504 580 39,100  Climbing Minneapolis Center
09:00AM 41.9661 -94.0256 78° East 509 586 39,100 -60 Level Minneapolis Center
09:01AM 41.9906 -93.8511 79° East 507 583 39,000 -60 Descending Minneapolis Center
09:02AM 42.0169 -93.6711 79° East 500 575 39,000  Level Minneapolis Center
09:03AM 42.0472 -93.4558 79° East 494 568 39,000  Level Minneapolis Center
09:04AM 42.0733 -93.2753 79° East 496 571 39,000  Level Minneapolis Center
09:05AM 42.0978 -93.0956 80° East 493 567 39,000  Level Minneapolis Center
09:06AM 42.1222 -92.9161 80° East 493 567 39,000  Level Minneapolis Center
09:07AM 42.1475 -92.7369 79° East 491 565 39,000  Level Minneapolis Center
09:08AM 42.1711 -92.5586 80° East 491 565 39,000 -360 Level Minneapolis Center
09:09AM 42.1850 -92.4483 80° East 492 566 38,500 -1,020 Descending Chicago Center
09:10AM 42.2097 -92.2647 80° East 500 575 37,500 -1,020 Descending Chicago Center
09:11AM 42.2339 -92.0728 80° East 519 597 36,500 -960 Descending Chicago Center
09:12AM 42.2586 -91.8869 80° East 515 593 35,600 -1,320 Descending Chicago Center
09:13AM 42.2864 -91.6675 80° East 505 581 33,800 -1,320 Descending Chicago Center
09:14AM 42.3086 -91.4839 81° East 505 581 32,900 -840 Descending Chicago Center
09:15AM 42.3308 -91.2981 81° East 508 585 32,100 -480 Descending Chicago Center
09:16AM 42.3533 -91.1106 81° East 514 592 32,000 -540 Descending Chicago Center
09:17AM 42.3803 -90.8844 81° East 515 593 31,000 -1,200 Descending Chicago Center
09:18AM 42.4022 -90.6944 81° East 517 595 29,600 -1,320 Descending Chicago Center
09:19AM 42.4206 -90.5100 82° East 503 579 28,300 -1,200 Descending Chicago Center
09:20AM 42.4394 -90.3328 82° East 485 558 27,100 -1,620 Descending Chicago Center
09:21AM 42.4608 -90.1242 82° East 474 545 25,000 -1,980 Descending Chicago Center
09:22AM 42.4769 -89.9500 83° East 472 543 23,100 -1,800 Descending Chicago Center
09:23AM 42.4931 -89.7828 83° East 467 537 21,400 -1,800 Descending Chicago Center
09:24AM 42.5122 -89.5897 82° East 445 512 19,400 -1,800 Descending Chicago Center
09:25AM 42.5278 -89.4236 83° East 445 512 17,700 -1,680 Descending Chicago Center
09:26AM 42.5436 -89.2581 83° East 444 511 16,000 -1,380 Descending Chicago Center
09:27AM 42.5547 -89.0972 85° East 431 496 14,900 -1,020 Descending Chicago Center
09:28AM 42.5078 -88.9428 112° Southeast 432 497 14,000 -1,020 Descending Chicago Center
09:30AM 42.4544 -88.7631 112° Southeast 438 504 12,900 -1,440 Descending Chicago Center
09:31AM 42.4103 -88.6153 112° Southeast 428 493 11,100 -1,440 Descending Chicago Center
09:32AM 42.3633 -88.4814 115° Southeast 399 459 10,000 -540 Descending Chicago Center
09:33AM 42.2961 -88.3789 132° Southeast 382 440 10,000  Level Chicago Center
09:34AM 42.2253 -88.2694 131° Southeast 386 444 10,000  Level Chicago Center
09:35AM 42.1403 -88.1389 131° Southeast 387 445 10,000  Level Chicago Center
09:35AM 42.1167 -88.0833 120° Southeast 372 428 10,000 -480 Level Chicago TRACON
09:36AM 42.1000 -87.9500 100° East 327 376 9,300 -780 Descending Chicago TRACON
09:37AM 42.1000 -87.8500 90° East 278 320 8,400 -1,320 Descending Chicago TRACON
09:38AM 42.0956 -87.8031 97° East 275 316 7,200 -2,400 Descending Chicago Center
09:39AM 42.0867 -87.7208 98° East 239 275 4,500 -2,640 Descending Chicago Center